TTW701 RCKH-VHHH
Flight info
| Callsign | TTW701 |
|---|---|
| Flight time | N/A |
| Altitude | 34000 |
| Route | PARAS2A PARAS T7 WP521 G581 ELATO V522 ABBEY |
| Aircraft | A320/M-SDE3FGHIRWY/LB1 |
Departure
| Time | 2026-04-24 14:46 |
|---|---|
| Airport | Kaohsiung International Airport (RCKH) |
Arrival
| Time | N/A |
|---|---|
| Airport | Hong Kong International Airport (VHHH) |
| Time | Latitude | Longitude | Altitude | Speed | Heading |
|---|---|---|---|---|---|
| 2026-04-24 14:18 | 22.57267 | 120.34128 | 29 ft | 0 kts | 91° |
| 2026-04-24 14:39 | 22.57267 | 120.34127 | 38 ft | 1 kts | 91° |
| 2026-04-24 14:39 | 22.57267 | 120.34111 | 38 ft | 3 kts | 88° |
| 2026-04-24 14:40 | 22.57266 | 120.34089 | 40 ft | 3 kts | 81° |
| 2026-04-24 14:40 | 22.57262 | 120.34068 | 37 ft | 3 kts | 65° |
| 2026-04-24 14:40 | 22.57252 | 120.34052 | 33 ft | 3 kts | 20° |
| 2026-04-24 14:40 | 22.57245 | 120.34049 | 34 ft | 0 kts | 2° |
| 2026-04-24 14:43 | 22.57258 | 120.34049 | 35 ft | 5 kts | 1° |
| 2026-04-24 14:43 | 22.57314 | 120.34051 | 38 ft | 11 kts | 1° |
| 2026-04-24 14:44 | 22.57404 | 120.34029 | 38 ft | 15 kts | 306° |
| 2026-04-24 14:44 | 22.57414 | 120.33905 | 38 ft | 18 kts | 271° |
| 2026-04-24 14:44 | 22.57418 | 120.33759 | 38 ft | 21 kts | 271° |
| 2026-04-24 14:44 | 22.57473 | 120.33641 | 38 ft | 19 kts | 318° |
| 2026-04-24 14:45 | 22.57569 | 120.33546 | 38 ft | 16 kts | 317° |
| 2026-04-24 14:45 | 22.57661 | 120.33502 | 38 ft | 14 kts | 358° |
| 2026-04-24 14:45 | 22.57750 | 120.33520 | 38 ft | 12 kts | 51° |
| 2026-04-24 14:45 | 22.57751 | 120.33621 | 38 ft | 18 kts | 91° |
| 2026-04-24 14:46 | 22.57741 | 120.33959 | 39 ft | 83 kts | 92° |
| 2026-04-24 14:46 | 22.57713 | 120.34824 | 40 ft | 143 kts | 91° |
| 2026-04-24 14:46 | 22.57677 | 120.36010 | 420 ft | 159 kts | 90° |
| 2026-04-24 14:46 | 22.57621 | 120.37206 | 1079 ft | 161 kts | 99° |
| 2026-04-24 14:47 | 22.57287 | 120.37958 | 1271 ft | 174 kts | 131° |
| 2026-04-24 14:47 | 22.55675 | 120.38494 | 1646 ft | 208 kts | 193° |
| 2026-04-24 14:47 | 22.54355 | 120.37714 | 2091 ft | 224 kts | 218° |
| 2026-04-24 14:47 | 22.53155 | 120.36639 | 3000 ft | 223 kts | 221° |
| 2026-04-24 14:48 | 22.51992 | 120.35519 | 3894 ft | 225 kts | 223° |
| 2026-04-24 14:48 | 22.50822 | 120.34382 | 4784 ft | 227 kts | 223° |
| 2026-04-24 14:48 | 22.49641 | 120.33245 | 5658 ft | 228 kts | 223° |
| 2026-04-24 14:48 | 22.48439 | 120.32102 | 6516 ft | 231 kts | 223° |
| 2026-04-24 14:49 | 22.47231 | 120.30963 | 6873 ft | 234 kts | 222° |
| 2026-04-24 14:49 | 22.46001 | 120.29814 | 7058 ft | 234 kts | 222° |
| 2026-04-24 14:49 | 22.44771 | 120.28672 | 7872 ft | 233 kts | 222° |
| 2026-04-24 14:49 | 22.43539 | 120.27530 | 8773 ft | 233 kts | 222° |
| 2026-04-24 14:50 | 22.42303 | 120.26384 | 9648 ft | 234 kts | 222° |
| 2026-04-24 14:50 | 22.41062 | 120.25236 | 10467 ft | 235 kts | 222° |
| 2026-04-24 14:50 | 22.39814 | 120.24082 | 11274 ft | 236 kts | 222° |
| 2026-04-24 14:50 | 22.38561 | 120.22927 | 12095 ft | 237 kts | 222° |
| 2026-04-24 14:51 | 22.37304 | 120.21768 | 12923 ft | 238 kts | 222° |
| 2026-04-24 14:51 | 22.36045 | 120.20606 | 13739 ft | 239 kts | 222° |
| 2026-04-24 14:51 | 22.34777 | 120.19439 | 14455 ft | 240 kts | 221° |
| 2026-04-24 14:51 | 22.33494 | 120.18261 | 15153 ft | 242 kts | 221° |
| 2026-04-24 14:52 | 22.32204 | 120.17074 | 15841 ft | 245 kts | 221° |
| 2026-04-24 14:52 | 22.30904 | 120.15873 | 16530 ft | 247 kts | 223° |
| 2026-04-24 14:52 | 22.29786 | 120.14468 | 17202 ft | 249 kts | 239° |
| 2026-04-24 14:52 | 22.29089 | 120.12688 | 17479 ft | 271 kts | 254° |
| 2026-04-24 14:53 | 22.28651 | 120.10621 | 17622 ft | 294 kts | 255° |
| 2026-04-24 14:53 | 22.28182 | 120.08389 | 17756 ft | 316 kts | 255° |
| 2026-04-24 14:53 | 22.27676 | 120.05992 | 17886 ft | 338 kts | 255° |
| 2026-04-24 14:53 | 22.27136 | 120.03443 | 18020 ft | 358 kts | 255° |
| 2026-04-24 14:54 | 22.26569 | 120.00768 | 18360 ft | 371 kts | 255° |
| 2026-04-24 14:54 | 22.25989 | 119.98032 | 18902 ft | 376 kts | 255° |